Terminal Aerodrome Forecast
Issued by NWS

Home | Current Version | Previous Version | Text Only | Print | Product List | Glossary On
Versions: 1 2 3 4 5 6 7 8 9 10 11 12 13 14
000
FTUS42 TJSJ 261138
TAFJPS
TAF
TJPS 261138Z 2612/2712 VRB04KT P6SM VCSH SCT025 SCT060
     FM261400 20008KT P6SM SCT025 SCT060
     FM262300 VRB01KT P6SM FEW030 FEW060=

USA.gov is the U.S. government's official web portal to all federal, state and local government web resources and services.